LZIB METAR and TAF | Updated Today

LZIB METAR

M. R. Štefánik Airport

Observation time: 18 min. ago

LZIB 200730Z 08005KT 050V150 CAVOK 19/08 Q1024 NOSIG

Need help? Read our tutorial on how to read METARs or read the parsed version below.

M. R. Štefánik Airport (LZIB) METAR

  • Weather conditions on Fri, 20 May 2022 07:30:00 +0000 (18 min. ago):
  • Present conditions: Dry
  • Clouds: Clear skies
  • Visibility: Greater than 10 km
  • Wind: 80 degrees at 5 knots
  • Temperature: 19 celsius
  • Dew point: 8 celsius
  • Pressure: 1024 millibars
  • Remarks: None


Useful to know...

LZIB TAF

M. R. Štefánik Airport

TAF LZIB 200515Z 2006/2106 05005KT CAVOK TEMPO 2012/2019 17008KT BECMG 2103/2105 29015KT TEMPO 2104/2106 29017G27KT
Observation time: 2:33 hr. ago
Need help? Read our tutorial on how to read TAFs or read the parsed version below.

Parsed version of TAF for M. R. Štefánik Airport (LZIB)

  • From 20 May at 06:00 UTC, to day 21 of the month at 06:00 UTC
  • Visibility: Greater than 10 km
  • Wind: 50 degrees at 5
  • Expected to arise temporarily, from 20 May at 12:00 UTC, to day 20 of the month at 19:00 UTC
  • Wind: 170 degrees at 8
  • Expected to arise soon, from 21 May at 03:00 UTC, to day 21 of the month at 05:00 UTC
  • Wind: 290 degrees at 15
  • Expected to arise temporarily, from 21 May at 04:00 UTC, to day 21 of the month at 06:00 UTC
  • Wind: 290 degrees at 17